Time;durP1;ratioP1;P1;durP2;ratioP2;P2;SDS_P1;SDS_P2;PMS_P1;PMS_P2;Temp;Humidity;BMP_temperature;BMP_pressure;BME280_temperature;BME280_humidity;BME280_pressure;Samples;Min_cycle;Max_cycle;Signal;HPM_P1;HPM_P2
2022/10/03 00:00:01;;;;;;;17.70;9.33;;;11.00;99.90;11.80;102423.00;;;;4955592;29;20220;-68
2022/10/03 00:06:32;;;;;;;0.60;0.60;;;11.10;99.90;12.00;102420.00;;;;4955304;28;20656;-68
2022/10/03 00:09:33;;;;;;;0.70;0.70;;;11.20;99.90;12.00;102419.00;;;;4952858;29;20189;-69
2022/10/03 00:15:39;;;;;;;0.60;0.60;;;11.10;99.90;11.90;102422.00;;;;4939352;29;20205;-69
2022/10/03 00:19:18;;;;;;;0.70;0.70;;;11.10;99.90;11.90;102377.00;;;;4992618;28;20252;-69
2022/10/03 00:22:19;;;;;;;16.90;5.43;;;11.20;99.90;12.10;102420.00;;;;4955306;29;20583;-69
2022/10/03 00:25:35;;;;;;;0.70;0.70;;;11.30;99.90;11.70;102412.00;;;;4955135;29;20225;-68
2022/10/03 00:29:36;;;;;;;0.60;0.60;;;11.10;99.90;11.70;102424.00;;;;4927420;29;20190;-69
2022/10/03 00:36:17;;;;;;;1.00;1.00;;;10.80;99.90;11.40;102439.00;;;;4852111;29;20202;-69
2022/10/03 00:39:16;;;;;;;0.60;0.60;;;10.80;99.90;11.50;102449.00;;;;4860385;29;20195;-69
2022/10/03 00:42:55;;;;;;;0.73;0.73;;;10.80;99.90;11.60;102452.00;;;;4916555;29;20277;-69
2022/10/03 00:46:03;;;;;;;0.50;0.50;;;11.10;99.90;11.40;102454.00;;;;4941086;29;20577;-69
2022/10/03 00:52:45;;;;;;;0.50;0.50;;;11.20;99.90;11.30;102460.00;;;;4948128;29;20251;-69
2022/10/03 01:03:48;;;;;;;0.50;0.50;;;11.20;99.90;11.80;102467.00;;;;4961258;28;20255;-68
2022/10/03 01:14:37;;;;;;;0.70;0.70;;;11.10;99.90;11.70;102464.00;;;;4935018;28;20200;-68
2022/10/03 01:18:10;;;;;;;0.60;0.60;;;11.00;99.90;11.70;102469.00;;;;4940152;29;20218;-68
2022/10/03 01:21:18;;;;;;;0.73;0.73;;;11.10;99.90;11.90;102428.00;;;;4937348;29;20189;-68
2022/10/03 01:24:04;;;;;;;0.97;0.97;;;11.10;99.90;10.70;102430.00;;;;5019672;28;20290;-68
2022/10/03 01:27:26;;;;;;;1.00;1.00;;;10.80;99.90;10.70;102417.00;;;;5053579;28;20189;-68
2022/10/03 01:30:33;;;;;;;0.50;0.50;;;10.70;99.90;10.80;102481.00;;;;4953531;29;20216;-68
2022/10/03 01:40:58;;;;;;;0.60;0.60;;;10.90;99.90;11.40;102475.00;;;;4895987;29;20635;-68
2022/10/03 01:44:24;;;;;;;0.73;0.73;;;10.90;99.90;12.10;102478.00;;;;4880472;29;20223;-68
2022/10/03 01:51:27;;;;;;;0.60;0.60;;;11.20;99.90;11.70;102485.00;;;;4896063;29;20224;-68
2022/10/03 01:55:00;;;;;;;0.60;0.60;;;11.10;99.90;11.50;102486.00;;;;4895647;29;20229;-69
2022/10/03 01:58:22;;;;;;;0.60;0.60;;;11.00;99.90;11.50;102480.00;;;;4895818;29;20190;-69
2022/10/03 02:01:22;;;;;;;3.00;2.83;;;10.80;99.90;11.30;102473.00;;;;4934528;29;20194;-69
2022/10/03 02:08:39;;;;;;;0.70;0.70;;;10.80;99.90;11.30;102474.00;;;;4934024;29;20753;-69
2022/10/03 02:32:48;;;;;;;2.50;2.20;;;10.80;99.90;11.50;102460.00;;;;5032790;28;20229;-69
2022/10/03 02:39:41;;;;;;;0.60;0.60;;;10.80;99.90;11.00;102463.00;;;;4991951;28;20186;-68
2022/10/03 02:42:49;;;;;;;0.60;0.60;;;10.80;99.90;11.20;102472.00;;;;4990857;28;20545;-69
2022/10/03 02:46:17;;;;;;;0.70;0.70;;;10.80;99.90;11.50;102470.00;;;;4990229;28;20273;-69
2022/10/03 02:57:22;;;;;;;0.60;0.60;;;10.80;99.90;11.70;102467.00;;;;4934143;29;20574;-68
2022/10/03 03:03:57;;;;;;;0.70;0.70;;;11.00;99.90;11.60;102462.00;;;;4914127;29;20223;-69
2022/10/03 03:07:14;;;;;;;0.70;0.70;;;10.90;99.90;11.50;102461.00;;;;4913347;29;20202;-69
2022/10/03 03:17:14;;;;;;;0.70;0.70;;;10.80;99.90;11.60;102477.00;;;;4878236;29;20699;-69
2022/10/03 03:20:57;;;;;;;1.10;1.10;;;11.00;99.90;11.80;102473.00;;;;4920785;29;20228;-69
2022/10/03 03:41:25;;;;;;;0.50;0.50;;;10.70;99.90;11.60;102424.00;;;;4899259;29;20200;-68
2022/10/03 03:48:20;;;;;;;0.60;0.60;;;10.70;99.90;11.40;102471.00;;;;4899177;29;20555;-68
2022/10/03 03:55:39;;;;;;;0.70;0.70;;;10.70;99.90;11.50;102480.00;;;;4932965;29;20297;-68
2022/10/03 03:58:33;;;;;;;0.73;0.73;;;10.70;99.90;11.20;102474.00;;;;4987531;28;20608;-68
2022/10/03 04:01:30;;;;;;;0.50;0.50;;;10.80;99.90;11.00;102478.00;;;;4996803;28;20217;-69
2022/10/03 04:04:27;;;;;;;0.40;0.40;;;10.60;99.90;11.10;102476.00;;;;4996336;28;20180;-68
2022/10/03 04:07:35;;;;;;;0.50;0.50;;;10.50;99.90;11.30;102472.00;;;;4995226;28;20195;-68
2022/10/03 04:10:35;;;;;;;1.77;1.67;;;10.60;99.90;11.60;102469.00;;;;4996230;28;20193;-68
2022/10/03 04:13:25;;;;;;;4.33;4.13;;;10.80;99.90;11.40;102419.00;;;;4996401;28;20212;-68
2022/10/03 04:20:23;;;;;;;0.60;0.60;;;10.70;99.90;11.30;102469.00;;;;4996067;28;20203;-68
2022/10/03 04:23:48;;;;;;;0.60;0.60;;;10.80;99.90;11.40;102470.00;;;;4996350;28;20193;-68
2022/10/03 04:26:27;;;;;;;0.60;0.60;;;10.70;99.90;11.50;102475.00;;;;4994816;28;20557;-68
2022/10/03 04:29:18;;;;;;;0.50;0.50;;;10.70;99.90;11.40;102480.00;;;;4996165;28;20195;-68
2022/10/03 04:32:11;;;;;;;0.50;0.50;;;10.60;99.90;11.60;102471.00;;;;4994711;28;20273;-68
2022/10/03 04:35:07;;;;;;;0.60;0.60;;;10.70;99.90;11.50;102475.00;;;;4996257;28;20279;-68
2022/10/03 04:37:43;;;;;;;0.50;0.50;;;10.80;99.90;11.00;102483.00;;;;4995878;28;20220;-69
2022/10/03 04:40:56;;;;;;;0.40;0.40;;;10.70;99.90;10.60;102495.00;;;;5013390;28;20215;-69
2022/10/03 04:43:43;;;;;;;0.40;0.40;;;10.40;99.90;10.80;102502.00;;;;5014244;28;20193;-69
2022/10/03 04:46:26;;;;;;;0.50;0.50;;;10.40;99.90;11.10;102504.00;;;;5014290;28;20185;-69
2022/10/03 04:49:25;;;;;;;0.60;0.60;;;10.40;99.90;11.30;102499.00;;;;5015286;28;20222;-69
2022/10/03 04:52:18;;;;;;;0.60;0.60;;;10.50;99.90;11.40;102454.00;;;;5015300;28;20239;-69
2022/10/03 04:55:18;;;;;;;0.53;0.53;;;10.60;99.90;11.30;102498.00;;;;4997812;28;20539;-69
2022/10/03 04:58:19;;;;;;;0.70;0.70;;;10.60;99.90;11.50;102429.00;;;;5015212;28;20188;-69
2022/10/03 05:01:53;;;;;;;0.67;0.67;;;10.80;99.90;11.40;102483.00;;;;5014740;28;20187;-68
2022/10/03 05:04:46;;;;;;;0.70;0.70;;;10.80;99.90;11.30;102473.00;;;;4957653;28;20194;-68
2022/10/03 05:07:55;;;;;;;0.60;0.60;;;10.70;99.90;11.20;102493.00;;;;4973517;28;20324;-69
2022/10/03 05:11:11;;;;;;;0.70;0.70;;;10.60;99.90;11.20;102492.00;;;;4957275;28;20728;-69
2022/10/03 05:14:43;;;;;;;0.60;0.60;;;10.50;99.90;11.10;102497.00;;;;4968727;28;20227;-69
2022/10/03 05:17:57;;;;;;;0.70;0.70;;;10.40;99.90;11.20;102493.00;;;;4970436;28;20650;-69
2022/10/03 05:21:04;;;;;;;1.27;1.27;;;10.50;99.90;11.30;102491.00;;;;4941031;28;20678;-69
2022/10/03 05:24:14;;;;;;;0.70;0.70;;;10.50;99.90;11.00;102488.00;;;;4973577;28;20194;-68
2022/10/03 05:27:32;;;;;;;0.80;0.80;;;10.40;99.90;11.40;102427.00;;;;4957141;28;20685;-69
2022/10/03 05:30:34;;;;;;;0.90;0.90;;;10.60;99.90;11.20;102479.00;;;;4896617;29;20200;-69
2022/10/03 05:33:40;;;;;;;0.83;0.83;;;10.50;99.90;11.00;102489.00;;;;4881533;29;20286;-69
2022/10/03 05:37:03;;;;;;;0.90;0.90;;;10.50;99.90;10.90;102499.00;;;;4896618;29;20623;-69
2022/10/03 05:40:38;;;;;;;0.80;0.80;;;10.40;99.90;10.50;102491.00;;;;4937385;28;20214;-69
2022/10/03 05:43:45;;;;;;;0.70;0.70;;;10.20;99.90;10.90;102477.00;;;;5009123;28;20275;-69
2022/10/03 05:46:59;;;;;;;0.90;0.90;;;10.10;99.90;11.00;102498.00;;;;4972366;28;20283;-69
2022/10/03 05:50:49;;;;;;;0.80;0.80;;;10.30;99.90;11.00;102496.00;;;;4996003;28;20291;-69
2022/10/03 05:53:58;;;;;;;1.00;1.00;;;10.20;99.90;10.80;102500.00;;;;4977777;28;20230;-69
2022/10/03 05:57:06;;;;;;;0.80;0.80;;;10.10;99.90;10.90;102503.00;;;;4994380;28;20200;-68
2022/10/03 06:00:07;;;;;;;0.83;0.83;;;10.10;99.90;11.20;102509.00;;;;4993853;28;20188;-69
2022/10/03 06:03:09;;;;;;;0.90;0.90;;;10.30;99.90;11.30;102511.00;;;;4993959;28;20546;-69
2022/10/03 06:06:52;;;;;;;0.80;0.80;;;10.40;99.90;11.30;102511.00;;;;4976832;28;20216;-70
2022/10/03 06:10:11;;;;;;;0.90;0.90;;;10.50;99.90;11.20;102517.00;;;;4937418;29;20198;-69
2022/10/03 06:13:29;;;;;;;0.90;0.90;;;10.50;99.90;11.40;102519.00;;;;4936947;29;20257;-68
2022/10/03 06:16:54;;;;;;;0.90;0.90;;;10.60;99.90;11.30;102455.00;;;;4940511;29;20198;-68
2022/10/03 06:20:21;;;;;;;0.80;0.80;;;10.50;99.90;11.20;102516.00;;;;4953307;29;20214;-68
2022/10/03 06:24:02;;;;;;;1.53;1.53;;;10.50;99.90;11.30;102510.00;;;;4945395;29;20333;-68
2022/10/03 06:27:08;;;;;;;0.90;0.90;;;10.60;99.90;11.40;102531.00;;;;4952804;28;20323;-68
2022/10/03 06:30:02;;;;;;;0.80;0.80;;;10.60;99.90;11.60;102528.00;;;;4970443;28;20201;-68
2022/10/03 06:33:05;;;;;;;1.17;1.17;;;10.90;99.90;11.70;102523.00;;;;4993494;28;20203;-68
2022/10/03 06:35:58;;;;;;;0.90;0.90;;;11.00;99.90;11.50;102517.00;;;;4993635;28;20185;-68
2022/10/03 06:39:08;;;;;;;0.90;0.90;;;10.90;99.90;11.20;102525.00;;;;4998135;28;20237;-69
2022/10/03 06:42:16;;;;;;;0.80;0.80;;;10.80;99.90;11.50;102474.00;;;;4995797;28;20280;-69
2022/10/03 06:45:22;;;;;;;0.80;0.80;;;10.80;99.90;11.70;102530.00;;;;4996130;28;20238;-69
2022/10/03 06:48:40;;;;;;;0.80;0.80;;;11.10;99.90;12.40;102486.00;;;;5013372;28;20253;-69
2022/10/03 06:51:27;;;;;;;0.80;0.80;;;11.40;99.90;12.30;102533.00;;;;4995755;28;20199;-68
2022/10/03 06:55:03;;;;;;;0.80;0.80;;;11.70;99.90;12.20;102534.00;;;;5014948;28;20194;-68
2022/10/03 06:57:56;;;;;;;0.60;0.60;;;11.70;99.90;13.00;102484.00;;;;5016851;28;20193;-68
2022/10/03 07:00:59;;;;;;;1.03;1.03;;;12.20;99.90;12.30;102532.00;;;;4999743;28;20286;-69
2022/10/03 07:03:43;;;;;;;0.90;0.90;;;12.20;99.90;12.10;102540.00;;;;4999291;28;20196;-69
2022/10/03 07:06:29;;;;;;;0.73;0.73;;;11.90;99.90;12.70;102554.00;;;;5016921;28;20193;-70
2022/10/03 07:09:25;;;;;;;1.07;1.07;;;12.00;99.90;12.70;102546.00;;;;4999286;28;20585;-69
2022/10/03 07:12:59;;;;;;;0.60;0.60;;;12.20;99.90;13.30;102547.00;;;;5017144;28;20212;-69
2022/10/03 07:15:47;;;;;;;1.00;1.00;;;12.70;99.90;12.80;102550.00;;;;5018395;28;20188;-69
2022/10/03 07:18:41;;;;;;;3.13;3.03;;;12.50;99.90;12.70;102551.00;;;;5015434;28;20295;-70
2022/10/03 07:22:22;;;;;;;0.60;0.60;;;12.50;99.90;13.30;102554.00;;;;5016791;28;20553;-69
2022/10/03 07:25:17;;;;;;;0.53;0.53;;;12.70;99.90;13.00;102550.00;;;;4991156;28;20196;-69
2022/10/03 07:28:10;;;;;;;0.40;0.40;;;12.90;99.90;13.00;102539.00;;;;5016336;28;20184;-70
2022/10/03 07:31:02;;;;;;;0.60;0.60;;;13.00;99.90;14.80;102520.00;;;;5016572;28;20609;-70
2022/10/03 07:34:22;;;;;;;0.40;0.40;;;13.60;99.90;13.90;102557.00;;;;4999009;28;20213;-70
2022/10/03 07:40:50;;;;;;;0.47;0.47;;;13.80;99.90;16.50;102558.00;;;;4941242;29;20269;-70
2022/10/03 07:43:49;;;;;;;0.90;0.90;;;14.80;99.90;17.80;102550.00;;;;4936754;29;20208;-71
2022/10/03 07:46:41;;;;;;;0.47;0.47;;;16.40;99.90;15.20;102527.00;;;;4936741;29;20227;-70
2022/10/03 07:49:41;;;;;;;0.30;0.30;;;15.50;99.90;17.40;102586.00;;;;4998827;28;20235;-70
2022/10/03 07:52:52;;;;;;;6.10;0.77;;;16.20;99.90;14.10;102577.00;;;;5021132;28;20586;-70
2022/10/03 07:56:07;;;;;;;0.60;0.60;;;14.80;99.90;13.40;102579.00;;;;5017456;28;20691;-70
2022/10/03 07:59:11;;;;;;;2.63;1.87;;;14.00;99.90;13.60;102579.00;;;;5018094;28;20601;-70
2022/10/03 08:02:19;;;;;;;2.13;2.03;;;13.80;99.90;13.70;102601.00;;;;5035729;28;20184;-70
2022/10/03 08:05:53;;;;;;;0.90;0.90;;;13.70;99.90;14.10;102571.00;;;;5035294;28;20187;-72
2022/10/03 08:08:49;;;;;;;1.27;1.27;;;13.70;99.90;14.20;102545.00;;;;4932804;29;20234;-70
2022/10/03 08:12:12;;;;;;;1.13;0.87;;;14.00;99.90;14.20;102600.00;;;;4952106;28;20198;-71
2022/10/03 08:14:53;;;;;;;2.43;2.03;;;14.10;99.90;15.10;102605.00;;;;5015719;28;20218;-71
2022/10/03 08:18:11;;;;;;;0.30;0.30;;;14.50;99.90;15.00;102553.00;;;;4998597;28;20269;-71
2022/10/03 08:21:17;;;;;;;1.77;1.67;;;14.80;99.90;16.40;102608.00;;;;5006021;28;20652;-71
2022/10/03 08:24:23;;;;;;;0.90;0.90;;;15.60;99.90;15.70;102607.00;;;;5025421;28;20206;-71
2022/10/03 08:27:23;;;;;;;0.93;0.67;;;15.80;99.90;15.50;102607.00;;;;5017608;28;20192;-72
2022/10/03 08:30:21;;;;;;;0.30;0.30;;;15.40;99.90;16.50;102608.00;;;;5034079;28;20228;-72
2022/10/03 08:33:59;;;;;;;0.23;0.23;;;15.90;99.90;18.20;102623.00;;;;5035396;28;20211;-72
2022/10/03 08:36:49;;;;;;;1.00;0.97;;;16.90;99.90;16.80;102622.00;;;;5025057;28;20617;-71
2022/10/03 08:39:58;;;;;;;0.80;0.80;;;17.10;99.90;16.80;102606.00;;;;5017053;28;20575;-72
2022/10/03 08:43:18;;;;;;;0.20;0.20;;;16.60;99.90;16.60;102616.00;;;;5017214;28;20209;-71
2022/10/03 08:46:39;;;;;;;1.00;0.93;;;16.50;99.90;16.90;102551.00;;;;5034763;28;20196;-70
2022/10/03 08:49:21;;;;;;;0.83;0.83;;;16.30;99.90;17.20;102610.00;;;;4997544;28;20187;-70
2022/10/03 08:52:04;;;;;;;0.40;0.40;;;16.70;99.90;16.50;102600.00;;;;5034134;28;20211;-70
2022/10/03 08:55:11;;;;;;;0.27;0.27;;;16.80;99.90;17.30;102600.00;;;;5016677;28;20187;-69
2022/10/03 08:58:21;;;;;;;1.50;1.40;;;16.70;99.90;17.60;102602.00;;;;5034721;28;20214;-70
2022/10/03 09:01:13;;;;;;;1.57;1.00;;;17.30;99.90;16.50;102589.00;;;;5016554;28;20300;-70
2022/10/03 09:04:25;;;;;;;0.77;0.77;;;16.80;99.90;18.50;102609.00;;;;5035037;28;20176;-70
2022/10/03 09:07:18;;;;;;;1.33;1.23;;;17.30;99.90;18.30;102560.00;;;;5033853;28;20197;-70
2022/10/03 09:10:12;;;;;;;0.20;0.20;;;17.80;99.90;18.20;102606.00;;;;5034527;28;20612;-69
2022/10/03 09:13:12;;;;;;;0.47;0.47;;;17.90;99.90;20.10;102623.00;;;;5034255;28;20210;-69
2022/10/03 09:15:47;;;;;;;1.80;1.00;;;18.70;99.90;19.00;102625.00;;;;4999939;28;20201;-69
2022/10/03 09:19:10;;;;;;;1.65;1.60;;;18.60;99.90;18.30;102608.00;;;;5034640;28;20189;-69
2022/10/03 09:21:59;;;;;;;4.03;3.30;;;18.20;99.90;18.70;102571.00;;;;5007579;28;20207;-68
2022/10/03 09:25:14;;;;;;;0.57;0.57;;;18.30;99.90;19.50;102622.00;;;;5018503;28;20198;-69
2022/10/03 09:28:28;;;;;;;0.10;0.10;;;18.60;99.90;20.90;102649.00;;;;5016335;28;20197;-68
2022/10/03 09:31:51;;;;;;;1.50;1.40;;;19.50;99.90;18.30;102626.00;;;;5016282;28;20177;-68
2022/10/03 09:35:15;;;;;;;0.40;0.40;;;18.60;99.90;16.90;102580.00;;;;4993791;28;20301;-68
2022/10/03 09:38:26;;;;;;;1.03;1.03;;;17.20;99.90;17.40;102594.00;;;;5028155;28;20193;-69
2022/10/03 09:41:36;;;;;;;0.43;0.43;;;17.20;99.90;17.30;102588.00;;;;5007032;28;20241;-69
2022/10/03 09:44:49;;;;;;;0.20;0.20;;;17.20;99.90;18.20;102603.00;;;;5033829;28;20185;-70
2022/10/03 09:47:47;;;;;;;1.03;1.03;;;17.50;99.90;18.90;102630.00;;;;5032593;28;20712;-70
2022/10/03 09:50:52;;;;;;;0.10;0.10;;;18.40;99.90;19.80;102634.00;;;;5032644;28;20197;-69
2022/10/03 09:54:08;;;;;;;1.13;0.87;;;18.80;99.90;20.20;102600.00;;;;5000219;28;20218;-68
2022/10/03 09:57:19;;;;;;;1.90;1.45;;;19.20;99.90;18.70;102647.00;;;;5032142;28;20344;-69
2022/10/03 10:00:21;;;;;;;0.68;0.50;;;18.90;99.90;18.30;102633.00;;;;5016055;28;20182;-69
2022/10/03 10:03:53;;;;;;;0.10;0.10;;;18.40;99.90;18.00;102622.00;;;;5015958;28;20202;-64
2022/10/03 10:06:46;;;;;;;0.10;0.10;;;17.80;99.90;17.80;102611.00;;;;4952751;28;20203;-68
2022/10/03 10:10:00;;;;;;;0.10;0.10;;;17.70;99.90;18.40;102620.00;;;;4953295;29;20216;-68
2022/10/03 10:13:10;;;;;;;0.10;0.10;;;17.90;99.90;18.90;102625.00;;;;4937376;29;20220;-69
2022/10/03 10:16:09;;;;;;;0.65;0.20;;;18.00;99.90;20.60;102667.00;;;;4996085;28;20185;-69
2022/10/03 10:19:22;;;;;;;0.10;0.10;;;19.10;99.90;20.30;102664.00;;;;5013490;28;20659;-69
2022/10/03 10:38:26;;;;;;;0.17;0.17;;;19.40;99.90;20.70;102623.00;;;;4989293;28;20202;-68
2022/10/03 10:41:51;;;;;;;0.10;0.10;;;20.10;99.90;21.10;102677.00;;;;5002349;28;20208;-66
2022/10/03 10:44:32;;;;;;;0.10;0.10;;;20.00;99.90;21.40;102650.00;;;;5070422;28;20244;-66
2022/10/03 10:47:30;;;;;;;0.40;0.40;;;20.70;99.90;21.50;102657.00;;;;5090287;28;20193;-66
2022/10/03 10:50:10;;;;;;;1.40;1.33;;;20.90;99.90;21.10;102682.00;;;;5090256;28;20181;-66
2022/10/03 10:53:08;;;;;;;1.02;0.90;;;20.40;99.90;20.60;102680.00;;;;5070035;28;20205;-66
2022/10/03 10:55:46;;;;;;;0.10;0.10;;;20.30;99.90;19.60;102612.00;;;;5068889;28;20509;-66
2022/10/03 10:59:01;;;;;;;0.10;0.10;;;19.50;99.90;19.80;102656.00;;;;5070291;28;20257;-66
2022/10/03 11:01:51;;;;;;;0.10;0.10;;;19.20;99.90;20.80;102638.00;;;;5082457;28;20189;-66
2022/10/03 11:04:41;;;;;;;0.50;0.50;;;19.70;99.90;21.50;102687.00;;;;5069859;28;20653;-66
2022/10/03 11:07:30;;;;;;;0.10;0.10;;;20.30;99.90;21.90;102699.00;;;;5083332;28;20185;-66
2022/10/03 11:10:32;;;;;;;0.10;0.10;;;20.70;99.90;21.20;102709.00;;;;5090114;28;20640;-67
2022/10/03 11:13:32;;;;;;;0.10;0.10;;;20.80;99.90;21.00;102664.00;;;;5055223;28;20279;-66
2022/10/03 11:16:26;;;;;;;0.10;0.10;;;20.40;99.90;22.40;102673.00;;;;5089930;28;20188;-66
2022/10/03 11:19:40;;;;;;;0.20;0.20;;;21.10;99.90;22.60;102710.00;;;;5089829;28;20261;-66
2022/10/03 11:22:50;;;;;;;0.10;0.10;;;21.40;99.90;22.40;102716.00;;;;5089648;28;20173;-66
2022/10/03 11:25:56;;;;;;;0.80;0.25;;;21.40;99.90;22.00;102702.00;;;;5089780;28;20214;-67
2022/10/03 11:28:53;;;;;;;0.10;0.10;;;21.30;99.90;22.30;102683.00;;;;5071585;28;20334;-66
2022/10/03 11:32:10;;;;;;;0.10;0.10;;;21.50;99.90;21.70;102718.00;;;;5071420;28;20220;-66
2022/10/03 11:35:36;;;;;;;0.38;0.30;;;21.40;99.90;21.50;102716.00;;;;5089418;28;20181;-66
2022/10/03 11:38:20;;;;;;;0.20;0.20;;;20.80;99.90;21.10;102708.00;;;;5072513;28;20204;-66
2022/10/03 11:41:35;;;;;;;0.10;0.10;;;20.50;99.90;21.30;102711.00;;;;5089394;28;20274;-66
2022/10/03 11:44:30;;;;;;;0.10;0.10;;;20.10;99.90;19.90;102661.00;;;;5080668;28;20182;-66
2022/10/03 11:47:18;;;;;;;7.38;0.43;;;19.40;99.90;21.00;102690.00;;;;5057453;28;20287;-66
2022/10/03 11:50:11;;;;;;;0.17;0.17;;;19.80;99.90;21.30;102650.00;;;;5076392;28;20184;-66
2022/10/03 11:52:46;;;;;;;0.20;0.20;;;20.20;99.90;21.70;102699.00;;;;5041302;28;20652;-66
2022/10/03 11:55:50;;;;;;;0.10;0.10;;;20.80;99.90;22.60;102695.00;;;;5075662;28;20612;-66
2022/10/03 11:58:59;;;;;;;0.10;0.10;;;21.30;99.90;21.80;102709.00;;;;5057099;28;20243;-66
2022/10/03 12:01:31;;;;;;;0.30;0.30;;;21.30;99.90;23.40;102694.00;;;;5075486;28;20194;-66
2022/10/03 12:04:12;;;;;;;0.20;0.20;;;21.90;99.90;21.20;102703.00;;;;5075518;28;20223;-67
2022/10/03 12:10:23;;;;;;;0.10;0.10;;;21.50;99.90;23.90;102707.00;;;;5075705;28;20188;-69
2022/10/03 12:12:55;;;;;;;0.10;0.10;;;22.40;99.90;22.40;102714.00;;;;5075743;28;20205;-68
2022/10/03 12:15:59;;;;;;;0.10;0.10;;;22.20;99.90;22.80;102670.00;;;;5057624;28;20184;-69
2022/10/03 12:18:49;;;;;;;0.10;0.10;;;22.00;99.90;22.90;102701.00;;;;4997501;28;20187;-69
2022/10/03 12:21:34;;;;;;;0.10;0.10;;;22.10;99.90;21.40;102724.00;;;;5069781;28;20201;-68
2022/10/03 12:24:17;;;;;;;0.10;0.10;;;20.90;99.90;23.20;102707.00;;;;5065328;28;20196;-69
2022/10/03 12:27:25;;;;;;;0.10;0.10;;;21.70;99.90;22.70;102694.00;;;;5057412;28;20177;-68
2022/10/03 12:30:02;;;;;;;0.10;0.10;;;21.80;99.90;22.80;102693.00;;;;5057176;28;20212;-68
2022/10/03 12:32:57;;;;;;;0.10;0.10;;;21.80;99.90;22.00;102709.00;;;;5057007;28;20675;-68
2022/10/03 12:35:44;;;;;;;0.10;0.10;;;21.40;99.90;22.60;102707.00;;;;5057390;28;20185;-69
2022/10/03 12:38:34;;;;;;;0.10;0.10;;;21.40;99.90;22.00;102697.00;;;;5075051;28;20184;-68
2022/10/03 12:41:57;;;;;;;0.10;0.10;;;21.00;99.90;22.00;102695.00;;;;5057030;28;20228;-68
2022/10/03 12:44:47;;;;;;;0.10;0.10;;;20.90;99.90;21.50;102698.00;;;;5075117;28;20264;-68
2022/10/03 12:47:19;;;;;;;0.10;0.10;;;21.00;99.90;22.30;102707.00;;;;5074894;28;20184;-69
2022/10/03 12:49:54;;;;;;;0.10;0.10;;;21.10;99.90;22.20;102654.00;;;;5074830;28;20640;-68
2022/10/03 12:52:31;;;;;;;0.10;0.10;;;21.20;99.90;21.00;102699.00;;;;5074608;28;20674;-69
2022/10/03 12:55:25;;;;;;;0.10;0.10;;;20.60;99.90;20.50;102670.00;;;;5056075;28;20205;-68
2022/10/03 12:58:32;;;;;;;0.10;0.10;;;20.00;99.90;20.70;102646.00;;;;5074506;28;20637;-68
2022/10/03 13:01:15;;;;;;;0.10;0.10;;;19.70;99.90;20.90;102654.00;;;;5056444;28;20185;-69
2022/10/03 13:04:17;;;;;;;0.47;0.47;;;19.70;99.90;20.70;102688.00;;;;5056716;28;20188;-68
2022/10/03 13:07:17;;;;;;;0.10;0.10;;;19.70;99.90;20.20;102685.00;;;;5056383;28;20180;-68
2022/10/03 13:10:11;;;;;;;0.10;0.10;;;19.40;99.90;20.60;102674.00;;;;5056793;28;20189;-68
2022/10/03 13:12:51;;;;;;;0.13;0.13;;;19.50;99.90;20.80;102632.00;;;;5074604;28;20194;-68
2022/10/03 13:15:45;;;;;;;0.10;0.10;;;19.50;99.90;21.40;102660.00;;;;5056214;28;20547;-68
2022/10/03 13:18:35;;;;;;;0.10;0.10;;;20.10;99.90;20.90;102669.00;;;;5081841;28;20244;-68
2022/10/03 13:21:25;;;;;;;0.10;0.10;;;20.00;99.90;20.60;102672.00;;;;5094404;28;20216;-69
2022/10/03 13:24:26;;;;;;;0.13;0.13;;;19.90;99.90;20.70;102681.00;;;;5094079;28;20169;-68
2022/10/03 13:27:11;;;;;;;0.10;0.10;;;19.60;99.90;19.50;102661.00;;;;5076327;28;20180;-68
2022/10/03 13:30:13;;;;;;;0.40;0.40;;;19.30;99.90;19.30;102671.00;;;;5060833;28;20660;-69
2022/10/03 13:32:58;;;;;;;0.10;0.10;;;18.70;99.90;19.10;102624.00;;;;5073726;28;20209;-68
2022/10/03 13:39:26;;;;;;;0.10;0.10;;;18.70;99.90;20.30;102653.00;;;;5073781;28;20342;-69
2022/10/03 13:42:31;;;;;;;0.10;0.10;;;19.20;99.90;20.50;102650.00;;;;5037428;28;20193;-69
2022/10/03 13:45:24;;;;;;;0.10;0.10;;;19.30;99.90;19.80;102631.00;;;;5073656;28;20178;-69
2022/10/03 13:48:17;;;;;;;0.10;0.10;;;19.00;99.90;20.50;102632.00;;;;5056282;28;20185;-69
2022/10/03 13:50:57;;;;;;;0.22;0.22;;;19.10;99.90;20.50;102620.00;;;;5053582;28;20197;-68
2022/10/03 13:53:48;;;;;;;0.10;0.10;;;19.30;99.90;20.10;102583.00;;;;5073468;28;20625;-68
2022/10/03 13:56:48;;;;;;;0.10;0.10;;;19.40;99.90;20.60;102623.00;;;;5073317;28;20182;-69
2022/10/03 13:59:55;;;;;;;0.10;0.10;;;19.20;99.90;21.50;102591.00;;;;5072471;28;20190;-69
2022/10/03 14:03:00;;;;;;;0.10;0.10;;;19.90;99.90;20.70;102613.00;;;;4991862;28;20200;-68
2022/10/03 14:06:02;;;;;;;0.20;0.20;;;19.70;99.90;20.80;102610.00;;;;4956628;28;20760;-68
2022/10/03 14:08:57;;;;;;;0.68;0.32;;;19.60;99.90;20.10;102560.00;;;;5054902;28;20189;-68
2022/10/03 14:12:08;;;;;;;0.50;0.50;;;19.30;99.90;20.60;102598.00;;;;5073501;28;20174;-68
2022/10/03 14:15:04;;;;;;;0.10;0.10;;;19.30;99.90;21.40;102597.00;;;;5073523;28;20524;-68
2022/10/03 14:18:26;;;;;;;0.10;0.10;;;19.80;99.90;21.10;102595.00;;;;5073184;28;20527;-68
2022/10/03 14:21:31;;;;;;;0.20;0.20;;;19.90;99.90;19.50;102575.00;;;;5042847;28;20194;-68
2022/10/03 14:24:27;;;;;;;0.10;0.10;;;19.30;99.90;19.40;102558.00;;;;4991654;28;20599;-69
2022/10/03 14:27:43;;;;;;;0.10;0.10;;;18.90;99.90;19.80;102556.00;;;;4991460;28;20644;-68
2022/10/03 14:30:27;;;;;;;0.10;0.10;;;18.80;99.90;19.70;102555.00;;;;5072970;28;20211;-69
2022/10/03 14:33:36;;;;;;;0.20;0.20;;;18.80;99.90;20.60;102567.00;;;;5038202;28;20592;-68
2022/10/03 14:37:19;;;;;;;1.15;0.57;;;19.20;99.90;21.00;102556.00;;;;5072856;28;20269;-69
2022/10/03 14:40:10;;;;;;;0.20;0.20;;;19.50;99.90;20.70;102564.00;;;;4991663;28;20188;-69
2022/10/03 14:43:28;;;;;;;0.10;0.10;;;19.50;99.90;20.10;102561.00;;;;4975288;28;20184;-69
2022/10/03 14:46:26;;;;;;;0.20;0.20;;;19.30;99.90;20.00;102549.00;;;;5030759;28;20240;-68
2022/10/03 14:49:37;;;;;;;0.10;0.10;;;19.10;99.90;20.20;102549.00;;;;5022263;28;20191;-69
2022/10/03 14:52:19;;;;;;;0.10;0.10;;;19.10;99.90;20.00;102554.00;;;;5038201;28;20209;-67
2022/10/03 14:55:18;;;;;;;0.10;0.10;;;19.00;99.90;20.30;102523.00;;;;5072541;28;20212;-66
2022/10/03 14:58:15;;;;;;;0.10;0.10;;;19.10;99.90;20.20;102551.00;;;;5046777;28;20883;-67
2022/10/03 15:00:46;;;;;;;0.55;0.55;;;19.20;99.90;19.60;102543.00;;;;5054511;28;20641;-66
2022/10/03 15:03:37;;;;;;;0.10;0.10;;;18.90;99.90;19.90;102496.00;;;;5054316;28;20197;-66
2022/10/03 15:06:18;;;;;;;0.10;0.10;;;18.90;99.90;20.20;102506.00;;;;5038585;28;20185;-66
2022/10/03 15:09:42;;;;;;;0.17;0.17;;;18.90;99.90;19.60;102530.00;;;;5072495;28;20181;-67
2022/10/03 15:12:27;;;;;;;0.10;0.10;;;18.80;99.90;19.70;102526.00;;;;5038696;28;20204;-66
2022/10/03 15:15:48;;;;;;;0.10;0.10;;;18.60;99.90;19.10;102522.00;;;;5055277;28;20639;-66
2022/10/03 15:18:23;;;;;;;1.10;1.10;;;18.50;99.90;19.00;102523.00;;;;5043711;28;20209;-67
2022/10/03 15:21:27;;;;;;;0.23;0.23;;;18.20;99.90;19.00;102519.00;;;;5058744;28;20184;-66
2022/10/03 15:25:10;;;;;;;0.10;0.10;;;18.20;99.90;19.20;102520.00;;;;5058644;28;20183;-66
2022/10/03 15:28:21;;;;;;;0.20;0.20;;;18.20;99.90;20.10;102522.00;;;;5075905;28;20329;-67
2022/10/03 15:38:46;;;;;;;0.40;0.40;;;18.30;99.90;19.90;102492.00;;;;5075944;28;20572;-67
2022/10/03 15:41:42;;;;;;;0.20;0.20;;;18.50;99.90;19.30;102488.00;;;;5056047;28;20192;-66
2022/10/03 15:44:54;;;;;;;0.20;0.20;;;18.40;99.90;19.40;102491.00;;;;5058032;28;20223;-66
2022/10/03 15:47:26;;;;;;;0.20;0.20;;;18.30;99.90;18.80;102484.00;;;;5039619;28;20667;-66
2022/10/03 15:50:28;;;;;;;0.20;0.20;;;18.20;99.90;18.70;102483.00;;;;5058067;28;20184;-66
2022/10/03 15:53:14;;;;;;;0.20;0.20;;;18.00;99.90;18.90;102484.00;;;;5051511;28;20220;-66
2022/10/03 15:56:23;;;;;;;0.20;0.20;;;18.00;99.90;18.80;102479.00;;;;5058034;28;20576;-66